Wetterdaten: aktuell Montag, 31.08.2026 12:35
Datum Zeit Temp. A. Feuchte A. Luftdruck Regen Wind Richtung Richtung Taupunkt Windchill
31.08.2026 12:35 22,4 °C 47 % 1007,9 hPa 0,0 l/m² 12,6 km/h (3 Bft) S-SO±67.5° 165 ° 10,5 °C 20,7 °C
31.08.2026 12:33 22,4 °C 47 % 1007,9 hPa 0,0 l/m² 15,8 km/h (3 Bft) SO±67.5° 140 ° 10,5 °C 20,0 °C
31.08.2026 12:31 22,3 °C 47 % 1007,9 hPa 0,0 l/m² 15,8 km/h (3 Bft) SO±67.5° 140 ° 10,4 °C 19,9 °C
31.08.2026 12:29 22,2 °C 48 % 1007,9 hPa 0,0 l/m² 8,9 km/h (2 Bft) O-SO±22.5° 110 ° 10,7 °C 21,4 °C
31.08.2026 12:27 22,2 °C 48 % 1007,9 hPa 0,0 l/m² 4,0 km/h (1 Bft) O±45° 95 ° 10,7 °C 22,2 °C
31.08.2026 12:24 22,2 °C 48 % 1007,9 hPa 0,0 l/m² 4,0 km/h (1 Bft) O±45° 95 ° 10,7 °C 22,2 °C
31.08.2026 12:22 22,2 °C 48 % 1007,9 hPa 0,0 l/m² 9,8 km/h (2 Bft) O-NO±22.5° 65 ° 10,7 °C 21,1 °C
31.08.2026 12:20 22,2 °C 48 % 1007,9 hPa 0,0 l/m² 13,0 km/h (3 Bft) SO±22.5° 140 ° 10,7 °C 20,3 °C
31.08.2026 12:18 22,3 °C 47 % 1007,9 hPa 0,0 l/m² 18,5 km/h (3 Bft) SO±67.5° 145 ° 10,4 °C 19,4 °C
31.08.2026 12:16 22,2 °C 48 % 1007,9 hPa 0,0 l/m² 18,5 km/h (3 Bft) SO±67.5° 145 ° 10,7 °C 19,3 °C
31.08.2026 12:14 22,2 °C 48 % 1007,9 hPa 0,0 l/m² 17,0 km/h (3 Bft) O-SO±45° 120 ° 10,7 °C 19,5 °C
31.08.2026 12:13 22,2 °C 49 % 1007,9 hPa 0,0 l/m² 11,3 km/h (2 Bft) SO±67.5° 130 ° 11,0 °C 20,7 °C
31.08.2026 12:11 22,1 °C 50 % 1007,9 hPa 0,0 l/m² 11,3 km/h (2 Bft) SO±67.5° 130 ° 11,2 °C 20,6 °C
31.08.2026 12:09 22,1 °C 50 % 1007,9 hPa 0,0 l/m² 22,2 km/h (4 Bft) S-SO±22.5° 160 ° 11,2 °C 18,6 °C
31.08.2026 12:07 21,8 °C 53 % 1007,9 hPa 0,0 l/m² 11,0 km/h (2 Bft) S±45° 180 ° 11,8 °C 20,4 °C
31.08.2026 12:05 21,7 °C 53 % 1007,9 hPa 0,0 l/m² 2,5 km/h (1 Bft) S-SW±22.5° 210 ° 11,7 °C 21,7 °C
31.08.2026 12:03 21,7 °C 53 % 1007,9 hPa 0,0 l/m² 2,5 km/h (1 Bft) S-SW±22.5° 210 ° 11,7 °C 21,7 °C
31.08.2026 12:01 21,5 °C 53 % 1008,0 hPa 0,0 l/m² 5,8 km/h (2 Bft) SO 130 ° 11,5 °C 21,5 °C
31.08.2026 11:59 21,4 °C 54 % 1008,0 hPa 0,0 l/m² 6,6 km/h (2 Bft) O±67.5° 85 ° 11,7 °C 21,3 °C
31.08.2026 11:57 21,3 °C 57 % 1008,0 hPa 0,0 l/m² 14,3 km/h (3 Bft) S-SO±67.5° 150 ° 12,4 °C 19,0 °C
31.08.2026 11:55 21,3 °C 57 % 1008,0 hPa 0,0 l/m² 14,3 km/h (3 Bft) S-SO±67.5° 150 ° 12,4 °C 19,0 °C
31.08.2026 11:53 21,2 °C 57 % 1008,0 hPa 0,0 l/m² 13,1 km/h (3 Bft) SO±45° 130 ° 12,3 °C 19,1 °C
31.08.2026 11:51 21,2 °C 57 % 1008,0 hPa 0,0 l/m² 9,4 km/h (2 Bft) S-SO±45° 155 ° 12,3 °C 20,1 °C
31.08.2026 11:49 21,2 °C 57 % 1008,0 hPa 0,0 l/m² 9,4 km/h (2 Bft) S-SO±45° 155 ° 12,3 °C 20,1 °C
31.08.2026 11:47 21,2 °C 57 % 1008,0 hPa 0,0 l/m² 9,4 km/h (2 Bft) S-SO±45° 155 ° 12,3 °C 20,1 °C
31.08.2026 11:44 21,2 °C 55 % 1008,0 hPa 0,0 l/m² 6,9 km/h (2 Bft) S-SO±67.5° 160 ° 11,8 °C 21,0 °C
31.08.2026 11:42 21,2 °C 55 % 1008,0 hPa 0,0 l/m² 14,3 km/h (3 Bft) S±67.5° 185 ° 11,8 °C 18,9 °C
31.08.2026 11:40 21,4 °C 53 % 1008,0 hPa 0,0 l/m² 14,3 km/h (3 Bft) S±67.5° 185 ° 11,4 °C 19,1 °C
31.08.2026 11:38 21,3 °C 51 % 1008,0 hPa 0,0 l/m² 11,8 km/h (2 Bft) O-SO±22.5° 120 ° 10,7 °C 19,6 °C
31.08.2026 11:36 21,3 °C 51 % 1008,0 hPa 0,0 l/m² 11,8 km/h (2 Bft) S-SO±67.5° 150 ° 10,7 °C 19,6 °C
31.08.2026 11:34 21,4 °C 51 % 1008,0 hPa 0,0 l/m² 12,2 km/h (2 Bft) SO±67.5° 130 ° 10,8 °C 19,6 °C
31.08.2026 11:33 21,5 °C 51 % 1008,0 hPa 0,0 l/m² 12,2 km/h (2 Bft) SO±67.5° 130 ° 10,9 °C 19,7 °C
31.08.2026 11:31 21,5 °C 51 % 1008,0 hPa 0,0 l/m² 7,2 km/h (2 Bft) O±67.5° 90 ° 10,9 °C 21,2 °C
31.08.2026 11:29 21,5 °C 51 % 1008,0 hPa 0,0 l/m² 11,0 km/h (2 Bft) O-SO±22.5° 115 ° 10,9 °C 20,0 °C
31.08.2026 11:27 21,6 °C 50 % 1008,0 hPa 0,0 l/m² 11,0 km/h (2 Bft) O-SO±22.5° 115 ° 10,7 °C 20,1 °C
31.08.2026 11:25 21,6 °C 50 % 1008,0 hPa 0,0 l/m² 6,3 km/h (2 Bft) O-SO 115 ° 10,7 °C 21,6 °C
31.08.2026 11:23 21,7 °C 50 % 1007,9 hPa 0,0 l/m² 11,0 km/h (2 Bft) O±67.5° 95 ° 10,8 °C 20,2 °C
31.08.2026 11:21 21,7 °C 51 % 1006,9 hPa 0,0 l/m² 10,5 km/h (2 Bft) O-SO±67.5° 115 ° 11,1 °C 20,4 °C
31.08.2026 11:19 21,7 °C 51 % 1006,9 hPa 0,0 l/m² 10,5 km/h (2 Bft) O-SO±67.5° 115 ° 11,1 °C 20,4 °C
31.08.2026 11:17 21,7 °C 52 % 1006,9 hPa 0,0 l/m² 4,4 km/h (1 Bft) SO±22.5° 125 ° 11,4 °C 21,7 °C
31.08.2026 11:15 21,7 °C 51 % 1006,9 hPa 0,0 l/m² 5,2 km/h (1 Bft) S±67.5° 170 ° 11,1 °C 21,7 °C
_ Min-Zeit 05:49 00:01 00:47 - 00:01 - - 00:15 08:23
Minimum _ 18,0 °C 43 % 1005,0 hPa - 0,0 km/h (0 Bft) - - 7,7 °C 16,5 °C
_ Max-Zeit 12:33 06:50 11:42 04:02 12:09 - - 08:23 12:24
Maximum _ 22,4 °C 84 % 1008,0 hPa 1,8 l/m² 22,2 km/h
S-SO (4 Bft)
- - 15,8 °C 22,2 °C
Durchschnitt _ 19,7 °C 66 % 1006,5 hPa #9,4 l/m² 3,0 km/h (1 Bft) SO - 12,7 °C 19,4 °C